Menu       Home   X °F

Select another period ( hide this area )

Units Period Custom range Directly to
Metric English Both
Daily Weekly Monthly Yearly
use both date-selectors for a custom range
previous Day
With this date
Daily Summary for Friday 01 March 2024
Time Temp. ( °F ) Dew pt. ( °F ) Wind ( mph ) From Gust ( mph ) Pressure ( in ) Humid.( % ) Rainrate ( in )
High66.6 52.9 14.3 North ( 183/451 ) 19.9 29.90 77 2.01
Average62.6 50.9 8.3 North #13/34 14.1 29.84 67 2.36
Low59.9 47.1 3.1   6.8 29.79 50 -
Daily Tabular details for Friday 01 March 2024
Time Temp. ( °F ) Dew pt. ( °F ) Wind ( mph ) From Gust ( mph ) Pressure ( in ) Humid.( % ) Rainrate ( in )
00:04 60.4 51.6 6.2 NNW 16.2 29.90 73 -
00:09 60.4 51.6 8.7 NE 13.0 29.89 73 -
00:14 60.6 52.0 6.8 NW 13.0 29.90 73 -
00:19 60.6 52.3 5.6 West 8.1 29.90 74 2.01
00:24 60.6 52.3 5.0 NW 8.1 29.89 74 0.99
00:29 60.6 52.3 5.0 NNE 6.8 29.88 74 0.99
00:34 60.6 52.3 3.7 NW 6.8 29.88 74 0.99
00:39 60.6 52.5 4.3 NNW 8.1 29.87 75 0.99
00:44 60.4 52.9 3.1 North 8.1 29.87 76 0.99
00:49 60.3 52.5 6.8 NNE 11.2 29.86 76 0.99
00:54 60.3 52.5 9.3 North 13.0 29.86 76 0.99
00:59 60.1 52.5 12.4 NNE 16.8 29.86 76 -
01:04 60.1 52.9 11.8 NNE 17.4 29.85 77 -
01:09 60.1 52.7 6.2 East 13.0 29.85 77 -
01:14 59.9 52.7 8.1 NE 11.8 29.84 77 -
01:19 60.4 52.5 11.2 NE 14.3 29.84 77 -
01:24 60.6 52.3 9.3 NNE 14.3 29.83 74 -
01:29 60.6 52.0 8.1 NW 13.0 29.83 73 -
01:34 61.3 52.0 8.7 ESE 13.0 29.83 73 -
01:39 62.2 51.3 10.6 NNE 16.2 29.83 69 -
01:44 63.9 49.8 10.6 ENE 16.2 29.83 63 -
01:49 64.8 47.8 6.2 SE 14.9 29.81 56 -
01:54 65.5 47.8 11.2 ESE 17.4 29.81 54 -
01:59 66.0 47.5 14.3 North 19.9 29.81 52 -
02:04 66.4 47.7 7.5 North 19.9 29.81 51 -
02:09 66.4 49.5 9.9 North 18.0 29.81 55 -
02:14 65.7 49.6 6.8 North 14.9 29.81 57 -
02:19 65.5 49.3 8.7 North 14.9 29.81 57 -
02:24 66.0 47.8 10.6 North 16.2 29.81 53 -
02:29 66.6 47.1 10.6 North 19.3 29.81 50 -
02:34 66.6 51.3 11.8 North 19.9 29.81 60 -
02:39 65.7 51.4 6.8 North 14.3 29.80 62 -
02:44 65.3 50.4 10.6 North 16.2 29.79 61 -
02:49 66.0 47.3 3.7 North 16.2 29.79 52 -

Download your copy of this data-set  from WeatherUnderground

Our weather-data as stored at Weather Underground


MeteoPatras.Eu 2013 - 2024